createdAt,value
2022-10-31T00:01:32.964Z,100.00
2022-10-31T00:04:01.555Z,100.00
2022-10-31T00:06:30.045Z,100.00
2022-10-31T00:09:00.651Z,100.00
2022-10-31T00:11:29.405Z,100.00
2022-10-31T00:14:00.154Z,100.00
2022-10-31T00:16:29.616Z,100.00
2022-10-31T00:19:00.737Z,100.00
2022-10-31T00:21:30.891Z,100.00
2022-10-31T00:24:00.299Z,100.00
2022-10-31T00:26:29.216Z,100.00
2022-10-31T00:28:59.361Z,100.00
2022-10-31T00:31:27.709Z,100.00
2022-10-31T00:33:55.975Z,100.00
2022-10-31T00:36:24.174Z,100.00
2022-10-31T00:38:52.404Z,100.00
2022-10-31T00:41:20.825Z,100.00
2022-10-31T00:43:49.026Z,100.00
2022-10-31T00:46:18.537Z,100.00
2022-10-31T00:48:46.727Z,100.00
2022-10-31T00:51:14.860Z,100.00
2022-10-31T00:53:43.063Z,100.00
2022-10-31T00:56:11.356Z,100.00
2022-10-31T00:58:39.587Z,100.00
2022-10-31T01:01:08.004Z,100.00
2022-10-31T01:03:39.608Z,100.00
2022-10-31T01:06:11.547Z,100.00
2022-10-31T01:08:40.774Z,100.00
2022-10-31T01:11:12.852Z,100.00
2022-10-31T01:13:41.217Z,100.00
2022-10-31T01:16:13.205Z,100.00
2022-10-31T01:18:42.820Z,100.00
2022-10-31T01:21:13.418Z,100.00
2022-10-31T01:23:42.203Z,100.00
2022-10-31T01:26:13.070Z,100.00
2022-10-31T01:28:47.034Z,100.00
2022-10-31T01:31:15.469Z,100.00
2022-10-31T01:33:45.327Z,100.00
2022-10-31T01:36:16.928Z,100.00
2022-10-31T01:38:46.101Z,100.00
2022-10-31T01:41:16.606Z,100.00
2022-10-31T01:43:48.439Z,100.00
2022-10-31T01:46:21.589Z,100.00
2022-10-31T01:48:51.990Z,100.00
2022-10-31T01:51:23.559Z,100.00
2022-10-31T01:53:56.112Z,100.00
2022-10-31T01:56:24.748Z,100.00
2022-10-31T01:58:53.807Z,100.00
2022-10-31T02:01:22.157Z,100.00
2022-10-31T02:03:52.080Z,100.00
2022-10-31T02:06:33.352Z,100.00
2022-10-31T02:09:05.083Z,100.00
2022-10-31T02:11:35.003Z,100.00
2022-10-31T02:14:05.058Z,100.00
2022-10-31T02:16:33.224Z,100.00
2022-10-31T02:19:02.870Z,100.00
2022-10-31T02:21:41.523Z,100.00
2022-10-31T02:24:46.577Z,100.00
2022-10-31T02:28:03.002Z,100.00
2022-10-31T02:30:42.664Z,100.00
2022-10-31T02:33:26.179Z,100.00
2022-10-31T02:36:06.656Z,100.00
2022-10-31T02:38:49.482Z,100.00
2022-10-31T02:41:28.721Z,100.00
2022-10-31T02:44:08.000Z,100.00
2022-10-31T02:46:45.708Z,100.00
2022-10-31T02:49:29.083Z,100.00
2022-10-31T02:51:57.585Z,100.00
2022-10-31T02:54:29.142Z,100.00
2022-10-31T02:57:01.528Z,100.00
2022-10-31T02:59:32.366Z,100.00
2022-10-31T03:02:20.595Z,100.00
2022-10-31T03:05:28.108Z,100.00
2022-10-31T03:08:05.141Z,100.00
2022-10-31T03:10:42.123Z,100.00
2022-10-31T03:13:17.139Z,100.00
2022-10-31T03:15:51.364Z,100.00
2022-10-31T03:18:27.891Z,100.00
2022-10-31T03:21:03.536Z,100.00
2022-10-31T03:23:34.263Z,100.00
2022-10-31T03:26:05.313Z,100.00
2022-10-31T03:28:45.515Z,100.00
2022-10-31T03:31:18.504Z,100.00
2022-10-31T03:33:48.529Z,100.00
2022-10-31T03:36:19.474Z,100.00
2022-10-31T03:38:49.455Z,100.00
2022-10-31T03:41:23.777Z,100.00
2022-10-31T03:44:00.821Z,100.00
2022-10-31T03:46:29.614Z,100.00
2022-10-31T03:48:58.573Z,100.00
2022-10-31T03:51:35.067Z,100.00
2022-10-31T03:54:13.854Z,100.00
2022-10-31T03:56:51.006Z,100.00
2022-10-31T03:59:26.302Z,100.00
2022-10-31T04:01:59.873Z,100.00
2022-10-31T04:04:29.716Z,100.00
2022-10-31T04:07:02.783Z,100.00
2022-10-31T04:09:34.462Z,100.00
2022-10-31T04:12:06.338Z,100.00
2022-10-31T04:14:37.243Z,100.00
2022-10-31T04:17:07.256Z,100.00
2022-10-31T04:19:35.639Z,100.00
2022-10-31T04:22:05.240Z,100.00
2022-10-31T04:24:33.475Z,100.00
2022-10-31T04:27:01.664Z,100.00
2022-10-31T04:29:29.820Z,100.00
2022-10-31T04:31:57.963Z,100.00
2022-10-31T04:34:26.228Z,100.00
2022-10-31T04:36:54.348Z,100.00
2022-10-31T04:39:26.594Z,100.00
2022-10-31T04:41:55.163Z,100.00
2022-10-31T04:44:23.342Z,100.00
2022-10-31T04:46:51.502Z,100.00
2022-10-31T04:49:19.686Z,100.00
2022-10-31T04:51:47.845Z,100.00
2022-10-31T04:54:16.018Z,100.00
2022-10-31T04:56:45.523Z,100.00
2022-10-31T04:59:13.706Z,100.00
2022-10-31T05:01:41.938Z,100.00
2022-10-31T05:04:10.429Z,100.00
2022-10-31T05:06:38.561Z,100.00
2022-10-31T05:09:06.982Z,100.00
2022-10-31T05:11:35.156Z,100.00
2022-10-31T05:14:04.771Z,100.00
2022-10-31T05:16:32.916Z,100.00
2022-10-31T05:19:01.221Z,100.00
2022-10-31T05:21:29.381Z,100.00
2022-10-31T05:23:57.551Z,100.00
2022-10-31T05:26:26.442Z,100.00
2022-10-31T05:28:54.644Z,100.00
2022-10-31T05:31:24.147Z,100.00
2022-10-31T05:33:52.298Z,100.00
2022-10-31T05:36:20.473Z,100.00
2022-10-31T05:38:48.614Z,100.00
2022-10-31T05:41:16.743Z,100.00
2022-10-31T05:43:44.891Z,100.00
2022-10-31T05:46:13.035Z,100.00
2022-10-31T05:48:42.593Z,100.00
2022-10-31T05:51:10.712Z,100.00
2022-10-31T05:53:38.868Z,100.00
2022-10-31T05:56:07.632Z,100.00
2022-10-31T05:58:35.804Z,100.00
2022-10-31T06:01:03.996Z,100.00
2022-10-31T06:03:32.192Z,100.00
2022-10-31T06:06:01.716Z,100.00
2022-10-31T06:08:29.889Z,100.00
2022-10-31T06:10:58.060Z,100.00
2022-10-31T06:13:26.186Z,100.00
2022-10-31T06:15:54.365Z,100.00
2022-10-31T06:18:22.617Z,100.00
2022-10-31T06:20:50.778Z,100.00
2022-10-31T06:23:20.308Z,100.00
2022-10-31T06:25:51.630Z,100.00
2022-10-31T06:28:19.809Z,100.00
2022-10-31T06:30:48.436Z,100.00
2022-10-31T06:33:16.792Z,100.00
2022-10-31T06:35:48.431Z,100.00
2022-10-31T06:38:16.896Z,100.00
2022-10-31T06:40:46.473Z,100.00
2022-10-31T06:43:15.778Z,100.00
2022-10-31T06:45:44.011Z,100.00
2022-10-31T06:48:17.089Z,100.00
2022-10-31T06:50:46.210Z,100.00
2022-10-31T06:53:15.247Z,100.00
2022-10-31T06:55:44.035Z,100.00
2022-10-31T06:58:13.650Z,100.00
2022-10-31T07:00:41.998Z,100.00
2022-10-31T07:03:14.296Z,100.00
2022-10-31T07:05:42.599Z,100.00
2022-10-31T07:08:13.359Z,100.00
2022-10-31T07:10:44.384Z,100.00
2022-10-31T07:13:15.991Z,100.00
2022-10-31T07:15:45.302Z,100.00
2022-10-31T07:18:14.821Z,100.00
2022-10-31T07:20:43.013Z,100.00
2022-10-31T07:23:12.592Z,100.00
2022-10-31T07:25:41.241Z,100.00
2022-10-31T07:28:09.476Z,100.00
2022-10-31T07:30:39.705Z,100.00
2022-10-31T07:33:08.628Z,100.00
2022-10-31T07:35:36.810Z,100.00
2022-10-31T07:38:15.905Z,100.00
2022-10-31T07:40:45.028Z,100.00
2022-10-31T07:43:14.968Z,100.00
2022-10-31T07:45:44.476Z,100.00
2022-10-31T07:48:12.634Z,100.00
2022-10-31T07:50:41.022Z,100.00
2022-10-31T07:53:11.671Z,100.00
2022-10-31T07:55:40.574Z,100.00
2022-10-31T07:58:11.623Z,100.00
2022-10-31T08:00:42.218Z,100.00
2022-10-31T08:03:15.037Z,100.00
2022-10-31T08:05:45.739Z,100.00
2022-10-31T08:08:14.551Z,100.00
2022-10-31T08:10:43.181Z,100.00
2022-10-31T08:13:13.626Z,100.00
2022-10-31T08:15:43.015Z,100.00
2022-10-31T08:18:15.806Z,100.00
2022-10-31T08:20:45.549Z,100.00
2022-10-31T08:23:15.754Z,100.00
2022-10-31T08:25:44.072Z,100.00
2022-10-31T08:28:13.501Z,100.00
2022-10-31T08:30:42.789Z,100.00
2022-10-31T08:33:15.634Z,100.00
2022-10-31T08:35:44.090Z,100.00
2022-10-31T08:38:14.156Z,100.00
2022-10-31T08:40:42.584Z,100.00
2022-10-31T08:43:15.361Z,100.00
2022-10-31T08:45:44.812Z,100.00
2022-10-31T08:48:16.651Z,100.00
2022-10-31T08:50:46.602Z,100.00
2022-10-31T08:53:17.188Z,100.00
2022-10-31T08:55:47.515Z,100.00
2022-10-31T08:58:17.765Z,100.00
2022-10-31T09:00:47.235Z,100.00
2022-10-31T09:03:19.671Z,100.00
2022-10-31T09:05:48.169Z,100.00
2022-10-31T09:08:17.497Z,100.00
2022-10-31T09:10:46.301Z,100.00
2022-10-31T09:13:16.745Z,100.00
2022-10-31T09:15:46.896Z,100.00
2022-10-31T09:18:18.607Z,100.00
2022-10-31T09:20:48.913Z,100.00
2022-10-31T09:23:19.426Z,100.00
2022-10-31T09:25:50.685Z,100.00
2022-10-31T09:28:21.665Z,100.00
2022-10-31T09:30:51.761Z,100.00
2022-10-31T09:33:22.457Z,100.00
2022-10-31T09:35:50.785Z,100.00
2022-10-31T09:38:21.277Z,100.00
2022-10-31T09:40:56.706Z,100.00
2022-10-31T09:43:35.481Z,100.00
2022-10-31T09:46:09.861Z,100.00
2022-10-31T09:48:57.647Z,100.00
2022-10-31T09:51:31.752Z,100.00
2022-10-31T09:54:07.861Z,100.00
2022-10-31T09:56:36.587Z,100.00
2022-10-31T09:59:12.559Z,100.00
2022-10-31T10:01:49.675Z,100.00
2022-10-31T10:04:41.690Z,98.94
2022-10-31T10:07:21.206Z,99.60
2022-10-31T10:09:49.403Z,97.18
2022-10-31T10:12:44.998Z,100.00
2022-10-31T10:15:39.003Z,100.00
2022-10-31T10:18:25.133Z,100.00
2022-10-31T10:21:07.144Z,100.00
2022-10-31T10:23:57.396Z,100.00
2022-10-31T10:29:33.889Z,100.00
2022-10-31T10:32:11.658Z,100.00
2022-10-31T10:34:47.109Z,100.00
2022-10-31T10:37:28.989Z,100.00
2022-10-31T10:40:05.471Z,100.00
2022-10-31T10:42:52.344Z,100.00
2022-10-31T10:45:39.488Z,100.00
2022-10-31T10:48:16.666Z,100.00
2022-10-31T10:50:50.352Z,100.00
2022-10-31T10:53:38.226Z,100.00
2022-10-31T10:56:17.596Z,100.00
2022-10-31T10:58:46.384Z,100.00
2022-10-31T11:01:16.875Z,100.00
2022-10-31T11:03:45.124Z,100.00
2022-10-31T11:06:23.215Z,100.00
2022-10-31T11:08:52.789Z,100.00
2022-10-31T11:11:30.524Z,100.00
2022-10-31T11:14:07.615Z,100.00
2022-10-31T11:16:41.572Z,100.00
2022-10-31T11:19:23.295Z,100.00
2022-10-31T11:21:54.283Z,100.00
2022-10-31T11:24:27.361Z,100.00
2022-10-31T11:27:18.311Z,100.00
2022-10-31T11:29:46.594Z,100.00
2022-10-31T11:32:23.048Z,100.00
2022-10-31T11:34:56.186Z,100.00
2022-10-31T11:37:27.867Z,100.00
2022-10-31T11:40:00.204Z,100.00
2022-10-31T11:42:37.166Z,100.00
2022-10-31T11:45:17.464Z,100.00
2022-10-31T11:47:49.758Z,100.00
2022-10-31T11:50:24.145Z,100.00
2022-10-31T11:55:35.697Z,100.00
2022-10-31T11:58:04.499Z,100.00
2022-10-31T12:00:35.778Z,100.00
2022-10-31T12:03:25.937Z,100.00
2022-10-31T12:06:00.887Z,100.00
2022-10-31T12:08:32.337Z,100.00
2022-10-31T12:11:14.146Z,100.00
2022-10-31T12:14:03.847Z,100.00
2022-10-31T12:16:48.416Z,98.55
2022-10-31T12:19:29.523Z,100.00
2022-10-31T12:22:14.020Z,100.00
2022-10-31T12:25:09.845Z,100.00
2022-10-31T12:28:06.310Z,100.00
2022-10-31T12:30:51.401Z,100.00
2022-10-31T12:33:39.230Z,100.00
2022-10-31T12:36:38.680Z,99.77
2022-10-31T12:39:32.314Z,100.00
2022-10-31T12:42:10.172Z,100.00
2022-10-31T12:45:15.435Z,100.00
2022-10-31T12:48:12.594Z,100.00
2022-10-31T12:50:55.387Z,100.00
2022-10-31T12:53:43.352Z,100.00
2022-10-31T12:56:35.005Z,100.00
2022-10-31T12:59:12.941Z,100.00
2022-10-31T13:01:49.866Z,100.00
2022-10-31T13:04:25.046Z,98.65
2022-10-31T13:07:04.128Z,91.00
2022-10-31T13:09:38.523Z,100.00
2022-10-31T13:12:12.141Z,100.00
2022-10-31T13:14:45.967Z,100.00
2022-10-31T13:17:26.511Z,97.41
2022-10-31T13:20:01.394Z,100.00
2022-10-31T13:22:36.677Z,99.94
2022-10-31T13:25:14.693Z,97.55
2022-10-31T13:27:51.478Z,100.00
2022-10-31T13:30:22.393Z,94.58
2022-10-31T13:32:58.492Z,100.00
2022-10-31T13:35:36.530Z,100.00
2022-10-31T13:38:17.008Z,100.00
2022-10-31T13:40:54.522Z,92.17
2022-10-31T13:43:34.872Z,96.85
2022-10-31T13:46:03.118Z,100.00
2022-10-31T13:48:43.690Z,98.29
2022-10-31T13:51:13.146Z,92.09
2022-10-31T13:53:46.423Z,93.72
2022-10-31T13:56:23.228Z,91.77
2022-10-31T13:59:20.587Z,99.83
2022-10-31T14:01:55.685Z,99.66
2022-10-31T14:04:28.866Z,98.65
2022-10-31T14:07:08.546Z,99.15
2022-10-31T14:09:40.346Z,95.86
2022-10-31T14:12:14.277Z,96.42
2022-10-31T14:14:51.062Z,95.97
2022-10-31T14:17:40.426Z,100.00
2022-10-31T14:20:39.910Z,98.55
2022-10-31T14:23:41.231Z,87.89
2022-10-31T14:26:34.583Z,91.30
2022-10-31T14:29:23.626Z,95.04
2022-10-31T14:32:01.875Z,78.30
2022-10-31T14:34:35.575Z,90.01
2022-10-31T14:37:43.716Z,89.17
2022-10-31T14:40:29.948Z,92.52
2022-10-31T14:43:22.346Z,85.31
2022-10-31T14:46:01.192Z,83.57
2022-10-31T14:49:04.370Z,89.81
2022-10-31T14:51:40.584Z,80.17
2022-10-31T14:54:16.484Z,78.38
2022-10-31T14:56:54.579Z,94.60
2022-10-31T14:59:29.389Z,90.78
2022-10-31T15:02:01.956Z,89.67
2022-10-31T15:04:33.524Z,87.53
2022-10-31T15:07:11.449Z,88.72
2022-10-31T15:09:44.430Z,86.92
2022-10-31T15:12:29.149Z,72.25
2022-10-31T15:14:59.414Z,88.07
2022-10-31T15:17:28.546Z,89.41
2022-10-31T15:19:57.548Z,88.58
2022-10-31T15:22:29.277Z,88.30
2022-10-31T15:24:59.172Z,87.87
2022-10-31T15:27:28.750Z,88.32
2022-10-31T15:29:58.897Z,86.80
2022-10-31T15:32:29.062Z,88.14
2022-10-31T15:34:58.585Z,88.74
2022-10-31T15:37:29.754Z,89.25
2022-10-31T15:40:14.180Z,87.19
2022-10-31T15:42:44.649Z,87.90
2022-10-31T15:45:21.699Z,87.53
2022-10-31T15:47:57.804Z,87.62
2022-10-31T15:50:33.812Z,87.66
2022-10-31T15:53:02.816Z,87.78
2022-10-31T15:55:51.115Z,87.26
2022-10-31T15:58:20.570Z,74.04
2022-10-31T16:01:00.675Z,70.52
2022-10-31T16:03:31.399Z,70.52
2022-10-31T16:06:01.917Z,71.91
2022-10-31T16:08:38.183Z,73.32
2022-10-31T16:11:25.402Z,73.30
2022-10-31T16:14:01.286Z,76.33
2022-10-31T16:16:35.994Z,77.25
2022-10-31T16:19:13.523Z,78.20
2022-10-31T16:21:42.845Z,78.65
2022-10-31T16:24:21.010Z,79.10
2022-10-31T16:26:55.874Z,79.95
2022-10-31T16:29:43.972Z,80.92
2022-10-31T16:32:28.850Z,81.85
2022-10-31T16:35:19.851Z,82.23
2022-10-31T16:37:48.034Z,81.64
2022-10-31T16:40:18.858Z,82.23
2022-10-31T16:42:49.870Z,82.96
2022-10-31T16:45:21.800Z,83.16
2022-10-31T16:47:50.736Z,82.35
2022-10-31T16:50:22.048Z,83.21
2022-10-31T16:55:46.632Z,84.24
2022-10-31T16:58:26.336Z,85.11
2022-10-31T17:00:55.397Z,85.11
2022-10-31T17:03:23.747Z,87.22
2022-10-31T17:05:51.934Z,85.34
2022-10-31T17:08:20.157Z,84.25
2022-10-31T17:10:52.712Z,84.64
2022-10-31T17:13:25.232Z,85.10
2022-10-31T17:15:59.739Z,84.61
2022-10-31T17:18:28.394Z,84.57
2022-10-31T17:21:02.513Z,86.02
2022-10-31T17:23:33.114Z,84.93
2022-10-31T17:26:01.517Z,84.36
2022-10-31T17:28:30.998Z,80.74
2022-10-31T17:30:59.521Z,83.62
2022-10-31T17:33:27.897Z,80.90
2022-10-31T17:35:56.103Z,79.78
2022-10-31T17:38:24.579Z,80.12
2022-10-31T17:40:52.741Z,79.85
2022-10-31T17:43:20.928Z,80.28
2022-10-31T17:45:50.735Z,75.94
2022-10-31T17:48:18.930Z,79.29
2022-10-31T17:50:47.289Z,79.39
2022-10-31T17:53:15.439Z,79.39
2022-10-31T17:55:43.592Z,78.23
2022-10-31T17:58:13.794Z,76.66
2022-10-31T18:00:45.836Z,79.67
2022-10-31T18:03:18.491Z,79.29
2022-10-31T18:05:54.972Z,78.64
2022-10-31T18:08:27.699Z,78.10
2022-10-31T18:10:59.805Z,78.53
2022-10-31T18:13:28.346Z,78.58
2022-10-31T18:15:56.598Z,79.10
2022-10-31T18:18:26.200Z,78.81
2022-10-31T18:20:57.702Z,79.94
2022-10-31T18:23:25.900Z,80.84
2022-10-31T18:25:55.626Z,82.07
2022-10-31T18:28:23.796Z,81.02
2022-10-31T18:30:52.126Z,79.87
2022-10-31T18:33:20.627Z,78.96
2022-10-31T18:35:50.163Z,84.89
2022-10-31T18:38:18.346Z,85.29
2022-10-31T18:40:46.538Z,81.77
2022-10-31T18:43:16.503Z,81.72
2022-10-31T18:45:47.862Z,82.67
2022-10-31T18:48:18.284Z,83.76
2022-10-31T18:50:46.921Z,82.18
2022-10-31T18:53:16.443Z,83.20
2022-10-31T18:55:49.122Z,86.83
2022-10-31T18:58:18.389Z,81.83
2022-10-31T19:00:46.843Z,82.93
2022-10-31T19:03:15.349Z,82.92
2022-10-31T19:05:43.556Z,82.82
2022-10-31T19:08:12.474Z,83.64
2022-10-31T19:10:42.335Z,90.64
2022-10-31T19:13:10.943Z,84.27
2022-10-31T19:15:39.151Z,84.82
2022-10-31T19:18:07.439Z,85.77
2022-10-31T19:20:38.401Z,90.38
2022-10-31T19:23:06.682Z,90.08
2022-10-31T19:25:34.919Z,89.26
2022-10-31T19:28:05.134Z,85.98
2022-10-31T19:30:33.500Z,84.50
2022-10-31T19:33:01.688Z,85.78
2022-10-31T19:35:29.834Z,87.38
2022-10-31T19:37:58.575Z,88.43
2022-10-31T19:40:26.993Z,85.62
2022-10-31T19:42:55.148Z,84.54
2022-10-31T19:45:24.703Z,84.23
2022-10-31T19:47:52.853Z,85.33
2022-10-31T19:50:21.051Z,85.25
2022-10-31T19:52:49.178Z,86.10
2022-10-31T19:55:17.508Z,87.15
2022-10-31T19:58:01.496Z,87.09
2022-10-31T20:00:31.618Z,91.17
2022-10-31T20:03:01.011Z,87.34
2022-10-31T20:05:29.393Z,87.22
2022-10-31T20:07:57.733Z,90.09
2022-10-31T20:10:26.181Z,87.53
2022-10-31T20:12:54.349Z,87.69
2022-10-31T20:15:22.535Z,88.73
2022-10-31T20:17:52.035Z,92.98
2022-10-31T20:20:20.444Z,90.94
2022-10-31T20:22:50.593Z,87.89
2022-10-31T20:25:19.326Z,89.78
2022-10-31T20:27:47.519Z,90.17
2022-10-31T20:30:15.968Z,89.30
2022-10-31T20:32:47.616Z,87.24
2022-10-31T20:35:20.010Z,88.30
2022-10-31T20:37:48.166Z,88.88
2022-10-31T20:40:16.574Z,89.97
2022-10-31T20:42:44.745Z,89.19
2022-10-31T20:45:13.012Z,87.97
2022-10-31T20:47:41.227Z,88.37
2022-10-31T20:50:10.016Z,88.45
2022-10-31T20:52:40.591Z,90.00
2022-10-31T20:55:09.482Z,87.95
2022-10-31T20:57:37.864Z,90.03
2022-10-31T21:00:08.870Z,89.69
2022-10-31T21:02:37.089Z,88.06
2022-10-31T21:05:08.369Z,89.94
2022-10-31T21:07:36.594Z,87.91
2022-10-31T21:10:14.722Z,86.37
2022-10-31T21:12:45.131Z,88.67
2022-10-31T21:15:15.390Z,88.26
2022-10-31T21:17:43.888Z,86.24
2022-10-31T21:20:12.762Z,86.85
2022-10-31T21:22:40.926Z,87.53
2022-10-31T21:25:10.652Z,88.31
2022-10-31T21:27:38.800Z,88.72
2022-10-31T21:30:08.159Z,89.64
2022-10-31T21:32:36.292Z,91.11
2022-10-31T21:35:04.821Z,89.24
2022-10-31T21:37:32.984Z,87.47
2022-10-31T21:40:01.253Z,86.43
2022-10-31T21:42:30.738Z,88.05
2022-10-31T21:44:59.185Z,87.70
2022-10-31T21:47:27.339Z,89.14
2022-10-31T21:49:55.509Z,87.39
2022-10-31T21:52:23.651Z,88.15
2022-10-31T21:54:50.820Z,87.91
2022-10-31T21:57:18.999Z,88.28
2022-10-31T21:59:48.943Z,93.52
2022-10-31T22:02:17.152Z,92.33
2022-10-31T22:04:45.644Z,89.89
2022-10-31T22:07:13.803Z,87.20
2022-10-31T22:09:47.272Z,89.14
2022-10-31T22:12:15.896Z,88.88
2022-10-31T22:14:44.121Z,92.18
2022-10-31T22:17:13.611Z,89.03
2022-10-31T22:19:41.782Z,91.82
2022-10-31T22:22:11.843Z,89.73
2022-10-31T22:24:40.086Z,92.00
2022-10-31T22:27:08.427Z,93.14
2022-10-31T22:29:37.562Z,89.53
2022-10-31T22:32:06.189Z,89.72
2022-10-31T22:34:35.761Z,90.07
2022-10-31T22:37:03.951Z,90.93
2022-10-31T22:39:32.187Z,92.20
2022-10-31T22:42:00.308Z,89.45
2022-10-31T22:44:28.496Z,90.66
2022-10-31T22:46:56.635Z,91.73
2022-10-31T22:49:25.019Z,93.18
2022-10-31T22:51:55.422Z,93.15
2022-10-31T22:54:23.604Z,93.12
2022-10-31T22:56:51.764Z,90.66
2022-10-31T22:59:19.922Z,91.64
2022-10-31T23:01:48.702Z,91.59
2022-10-31T23:04:17.656Z,90.72
2022-10-31T23:06:46.288Z,92.25
2022-10-31T23:09:18.554Z,92.17
2022-10-31T23:11:47.071Z,93.60
2022-10-31T23:14:19.518Z,90.28
2022-10-31T23:16:50.040Z,91.04
2022-10-31T23:19:22.036Z,93.98
2022-10-31T23:21:57.446Z,88.94
2022-10-31T23:24:34.147Z,92.43
2022-10-31T23:27:08.667Z,91.14
2022-10-31T23:29:40.787Z,91.84
2022-10-31T23:32:15.075Z,92.16
2022-10-31T23:34:43.635Z,90.95
2022-10-31T23:37:11.931Z,92.41
2022-10-31T23:39:42.092Z,92.18
2022-10-31T23:42:10.937Z,93.23
2022-10-31T23:44:39.165Z,93.84
2022-10-31T23:47:07.852Z,92.09
2022-10-31T23:49:36.327Z,92.13
2022-10-31T23:52:05.364Z,96.63
2022-10-31T23:54:34.500Z,97.14
2022-10-31T23:57:04.356Z,99.00
2022-10-31T23:59:33.187Z,98.93
